sensor_id;sensor_type;location;lat;lon;timestamp;temperature;humidity
46976;DHT22;32724;51.094;6.996;2023-06-22T00:00:27;22.20;97.80
46976;DHT22;32724;51.094;6.996;2023-06-22T00:02:52;22.20;98.10
46976;DHT22;32724;51.094;6.996;2023-06-22T00:05:18;22.20;97.70
46976;DHT22;32724;51.094;6.996;2023-06-22T00:07:43;22.20;97.70
46976;DHT22;32724;51.094;6.996;2023-06-22T00:10:09;22.20;97.50
46976;DHT22;32724;51.094;6.996;2023-06-22T00:12:34;22.30;97.50
46976;DHT22;32724;51.094;6.996;2023-06-22T00:15:00;22.20;97.50
46976;DHT22;32724;51.094;6.996;2023-06-22T00:17:25;22.20;97.40
46976;DHT22;32724;51.094;6.996;2023-06-22T00:19:50;22.20;97.30
46976;DHT22;32724;51.094;6.996;2023-06-22T00:22:19;22.20;97.60
46976;DHT22;32724;51.094;6.996;2023-06-22T00:24:53;22.20;97.30
46976;DHT22;32724;51.094;6.996;2023-06-22T00:27:19;22.20;97.20
46976;DHT22;32724;51.094;6.996;2023-06-22T00:29:44;22.20;97.10
46976;DHT22;32724;51.094;6.996;2023-06-22T00:32:10;22.20;97.30
46976;DHT22;32724;51.094;6.996;2023-06-22T00:34:35;22.20;97.10
46976;DHT22;32724;51.094;6.996;2023-06-22T00:37:00;22.20;97.20
46976;DHT22;32724;51.094;6.996;2023-06-22T00:39:26;22.20;97.20
46976;DHT22;32724;51.094;6.996;2023-06-22T00:41:52;22.20;97.40
46976;DHT22;32724;51.094;6.996;2023-06-22T00:44:17;22.20;97.30
46976;DHT22;32724;51.094;6.996;2023-06-22T00:46:43;22.20;96.80
46976;DHT22;32724;51.094;6.996;2023-06-22T00:49:08;22.30;97.10
46976;DHT22;32724;51.094;6.996;2023-06-22T00:51:34;22.30;97.30
46976;DHT22;32724;51.094;6.996;2023-06-22T00:54:03;22.30;97.20
46976;DHT22;32724;51.094;6.996;2023-06-22T00:56:30;22.30;96.50
46976;DHT22;32724;51.094;6.996;2023-06-22T00:58:57;22.30;96.30
46976;DHT22;32724;51.094;6.996;2023-06-22T01:01:24;22.30;96.80
46976;DHT22;32724;51.094;6.996;2023-06-22T01:03:50;22.30;96.70
46976;DHT22;32724;51.094;6.996;2023-06-22T01:06:17;22.30;97.20
46976;DHT22;32724;51.094;6.996;2023-06-22T01:09:06;22.20;97.20
46976;DHT22;32724;51.094;6.996;2023-06-22T01:11:36;22.20;97.10
46976;DHT22;32724;51.094;6.996;2023-06-22T01:14:08;22.10;97.00
46976;DHT22;32724;51.094;6.996;2023-06-22T01:16:36;22.10;97.10
46976;DHT22;32724;51.094;6.996;2023-06-22T01:21:47;22.00;97.10
46976;DHT22;32724;51.094;6.996;2023-06-22T01:24:15;22.00;97.00
46976;DHT22;32724;51.094;6.996;2023-06-22T01:27:04;22.00;97.20
46976;DHT22;32724;51.094;6.996;2023-06-22T01:29:33;22.00;97.40
46976;DHT22;32724;51.094;6.996;2023-06-22T01:31:59;22.00;97.40
46976;DHT22;32724;51.094;6.996;2023-06-22T01:34:27;21.90;97.40
46976;DHT22;32724;51.094;6.996;2023-06-22T01:36:53;21.90;97.40
46976;DHT22;32724;51.094;6.996;2023-06-22T01:39:18;21.90;97.00
46976;DHT22;32724;51.094;6.996;2023-06-22T01:41:44;21.90;97.30
46976;DHT22;32724;51.094;6.996;2023-06-22T01:44:10;21.80;97.30
46976;DHT22;32724;51.094;6.996;2023-06-22T01:46:36;21.80;97.10
46976;DHT22;32724;51.094;6.996;2023-06-22T01:49:02;21.80;97.20
46976;DHT22;32724;51.094;6.996;2023-06-22T01:51:29;21.70;97.20
46976;DHT22;32724;51.094;6.996;2023-06-22T01:53:54;21.70;97.10
46976;DHT22;32724;51.094;6.996;2023-06-22T01:56:20;21.70;97.20
46976;DHT22;32724;51.094;6.996;2023-06-22T02:01:44;21.60;97.30
46976;DHT22;32724;51.094;6.996;2023-06-22T02:04:13;21.60;97.40
46976;DHT22;32724;51.094;6.996;2023-06-22T02:06:44;21.60;97.30
46976;DHT22;32724;51.094;6.996;2023-06-22T02:09:11;21.60;97.40
46976;DHT22;32724;51.094;6.996;2023-06-22T02:11:37;21.50;97.40
46976;DHT22;32724;51.094;6.996;2023-06-22T02:14:04;21.50;97.50
46976;DHT22;32724;51.094;6.996;2023-06-22T02:16:30;21.50;97.70
46976;DHT22;32724;51.094;6.996;2023-06-22T02:18:56;21.40;97.70
46976;DHT22;32724;51.094;6.996;2023-06-22T02:21:23;21.40;97.90
46976;DHT22;32724;51.094;6.996;2023-06-22T02:23:48;21.50;97.90
46976;DHT22;32724;51.094;6.996;2023-06-22T02:26:15;21.40;98.00
46976;DHT22;32724;51.094;6.996;2023-06-22T02:28:41;21.40;98.20
46976;DHT22;32724;51.094;6.996;2023-06-22T02:31:06;21.30;98.50
46976;DHT22;32724;51.094;6.996;2023-06-22T02:33:32;21.30;98.70
46976;DHT22;32724;51.094;6.996;2023-06-22T02:35:57;21.30;99.10
46976;DHT22;32724;51.094;6.996;2023-06-22T02:38:22;21.20;99.00
46976;DHT22;32724;51.094;6.996;2023-06-22T02:40:49;21.20;98.80
46976;DHT22;32724;51.094;6.996;2023-06-22T02:43:15;21.20;99.40
46976;DHT22;32724;51.094;6.996;2023-06-22T02:45:40;21.20;99.30
46976;DHT22;32724;51.094;6.996;2023-06-22T02:48:06;21.20;99.20
46976;DHT22;32724;51.094;6.996;2023-06-22T02:50:31;21.20;99.00
46976;DHT22;32724;51.094;6.996;2023-06-22T02:52:57;21.20;99.00
46976;DHT22;32724;51.094;6.996;2023-06-22T02:55:23;21.20;99.10
46976;DHT22;32724;51.094;6.996;2023-06-22T02:57:49;21.20;99.10
46976;DHT22;32724;51.094;6.996;2023-06-22T03:00:17;21.20;99.20
46976;DHT22;32724;51.094;6.996;2023-06-22T03:02:43;21.20;99.00
46976;DHT22;32724;51.094;6.996;2023-06-22T03:05:09;21.20;98.90
46976;DHT22;32724;51.094;6.996;2023-06-22T03:07:42;21.30;98.80
46976;DHT22;32724;51.094;6.996;2023-06-22T03:10:11;21.30;98.70
46976;DHT22;32724;51.094;6.996;2023-06-22T03:12:37;21.30;98.70
46976;DHT22;32724;51.094;6.996;2023-06-22T03:15:04;21.30;98.70
46976;DHT22;32724;51.094;6.996;2023-06-22T03:17:29;21.30;98.80
46976;DHT22;32724;51.094;6.996;2023-06-22T03:19:55;21.30;98.80
46976;DHT22;32724;51.094;6.996;2023-06-22T03:22:20;21.30;98.70
46976;DHT22;32724;51.094;6.996;2023-06-22T03:24:46;21.30;98.70
46976;DHT22;32724;51.094;6.996;2023-06-22T03:27:11;21.30;98.80
46976;DHT22;32724;51.094;6.996;2023-06-22T03:29:37;21.30;98.70
46976;DHT22;32724;51.094;6.996;2023-06-22T03:32:02;21.30;98.80
46976;DHT22;32724;51.094;6.996;2023-06-22T03:34:30;21.30;98.70
46976;DHT22;32724;51.094;6.996;2023-06-22T03:36:58;21.30;98.70
46976;DHT22;32724;51.094;6.996;2023-06-22T03:39:24;21.30;98.70
46976;DHT22;32724;51.094;6.996;2023-06-22T03:41:49;21.40;98.80
46976;DHT22;32724;51.094;6.996;2023-06-22T03:44:15;21.30;98.80
46976;DHT22;32724;51.094;6.996;2023-06-22T03:46:40;21.30;98.80
46976;DHT22;32724;51.094;6.996;2023-06-22T03:49:06;21.40;98.90
46976;DHT22;32724;51.094;6.996;2023-06-22T03:51:32;21.30;98.90
46976;DHT22;32724;51.094;6.996;2023-06-22T03:53:57;21.40;98.90
46976;DHT22;32724;51.094;6.996;2023-06-22T03:56:23;21.40;99.30
46976;DHT22;32724;51.094;6.996;2023-06-22T03:58:48;21.40;99.90
46976;DHT22;32724;51.094;6.996;2023-06-22T04:01:14;21.40;99.90
46976;DHT22;32724;51.094;6.996;2023-06-22T04:03:42;21.40;99.90
46976;DHT22;32724;51.094;6.996;2023-06-22T04:06:08;21.40;99.90
46976;DHT22;32724;51.094;6.996;2023-06-22T04:08:33;21.40;99.90
46976;DHT22;32724;51.094;6.996;2023-06-22T04:10:59;21.40;99.90
46976;DHT22;32724;51.094;6.996;2023-06-22T04:13:24;21.30;99.90
46976;DHT22;32724;51.094;6.996;2023-06-22T04:15:50;21.30;99.90
46976;DHT22;32724;51.094;6.996;2023-06-22T04:18:15;21.30;99.90
46976;DHT22;32724;51.094;6.996;2023-06-22T04:20:41;21.20;99.90
46976;DHT22;32724;51.094;6.996;2023-06-22T04:23:06;21.30;99.90
46976;DHT22;32724;51.094;6.996;2023-06-22T04:25:32;21.20;99.90
46976;DHT22;32724;51.094;6.996;2023-06-22T04:27:57;21.10;99.90
46976;DHT22;32724;51.094;6.996;2023-06-22T04:30:23;21.20;99.90
46976;DHT22;32724;51.094;6.996;2023-06-22T04:32:48;21.20;99.90
46976;DHT22;32724;51.094;6.996;2023-06-22T04:35:23;21.20;99.90
46976;DHT22;32724;51.094;6.996;2023-06-22T04:37:49;21.30;99.90
46976;DHT22;32724;51.094;6.996;2023-06-22T04:40:15;21.40;99.90
46976;DHT22;32724;51.094;6.996;2023-06-22T04:42:40;21.40;99.90
46976;DHT22;32724;51.094;6.996;2023-06-22T04:45:06;21.40;99.90
46976;DHT22;32724;51.094;6.996;2023-06-22T04:47:31;21.50;99.90
46976;DHT22;32724;51.094;6.996;2023-06-22T04:49:57;21.50;99.90
46976;DHT22;32724;51.094;6.996;2023-06-22T04:52:22;21.60;99.90
46976;DHT22;32724;51.094;6.996;2023-06-22T04:54:49;21.60;99.90
46976;DHT22;32724;51.094;6.996;2023-06-22T04:57:20;21.60;99.90
46976;DHT22;32724;51.094;6.996;2023-06-22T04:59:46;21.60;99.90
46976;DHT22;32724;51.094;6.996;2023-06-22T05:02:11;21.70;99.90
46976;DHT22;32724;51.094;6.996;2023-06-22T05:04:37;21.70;99.90
46976;DHT22;32724;51.094;6.996;2023-06-22T05:07:04;21.80;99.90
46976;DHT22;32724;51.094;6.996;2023-06-22T05:09:29;21.80;99.90
46976;DHT22;32724;51.094;6.996;2023-06-22T05:11:55;21.90;99.90
46976;DHT22;32724;51.094;6.996;2023-06-22T05:14:22;21.90;99.90
46976;DHT22;32724;51.094;6.996;2023-06-22T05:16:48;22.00;99.90
46976;DHT22;32724;51.094;6.996;2023-06-22T05:19:13;22.00;99.90
46976;DHT22;32724;51.094;6.996;2023-06-22T05:21:39;22.10;99.90
46976;DHT22;32724;51.094;6.996;2023-06-22T05:24:04;22.20;99.90
46976;DHT22;32724;51.094;6.996;2023-06-22T05:26:31;22.40;99.90
46976;DHT22;32724;51.094;6.996;2023-06-22T05:28:56;22.60;99.90
46976;DHT22;32724;51.094;6.996;2023-06-22T05:31:22;22.70;99.90
46976;DHT22;32724;51.094;6.996;2023-06-22T05:33:49;22.90;99.90
46976;DHT22;32724;51.094;6.996;2023-06-22T05:36:14;22.90;99.90
46976;DHT22;32724;51.094;6.996;2023-06-22T05:38:40;22.80;99.90
46976;DHT22;32724;51.094;6.996;2023-06-22T05:41:06;22.80;99.90
46976;DHT22;32724;51.094;6.996;2023-06-22T05:43:31;22.70;99.90
46976;DHT22;32724;51.094;6.996;2023-06-22T05:45:57;22.60;99.90
46976;DHT22;32724;51.094;6.996;2023-06-22T05:48:23;22.50;99.90
46976;DHT22;32724;51.094;6.996;2023-06-22T05:50:48;22.40;99.90
46976;DHT22;32724;51.094;6.996;2023-06-22T05:53:14;22.40;99.90
46976;DHT22;32724;51.094;6.996;2023-06-22T05:55:39;22.40;99.90
46976;DHT22;32724;51.094;6.996;2023-06-22T05:58:05;22.30;99.90
46976;DHT22;32724;51.094;6.996;2023-06-22T06:00:31;22.30;99.90
46976;DHT22;32724;51.094;6.996;2023-06-22T06:02:56;22.20;99.90
46976;DHT22;32724;51.094;6.996;2023-06-22T06:05:22;22.20;99.90
46976;DHT22;32724;51.094;6.996;2023-06-22T06:07:49;22.00;99.90
46976;DHT22;32724;51.094;6.996;2023-06-22T06:10:14;21.60;99.90
46976;DHT22;32724;51.094;6.996;2023-06-22T06:12:40;21.20;99.90
46976;DHT22;32724;51.094;6.996;2023-06-22T06:15:06;21.00;99.90
46976;DHT22;32724;51.094;6.996;2023-06-22T06:17:31;20.80;99.90
46976;DHT22;32724;51.094;6.996;2023-06-22T06:19:58;20.70;99.90
46976;DHT22;32724;51.094;6.996;2023-06-22T06:22:24;20.70;99.90
46976;DHT22;32724;51.094;6.996;2023-06-22T06:24:49;20.70;99.90
46976;DHT22;32724;51.094;6.996;2023-06-22T06:27:15;20.70;99.90
46976;DHT22;32724;51.094;6.996;2023-06-22T06:29:41;20.70;99.90
46976;DHT22;32724;51.094;6.996;2023-06-22T06:32:06;20.80;99.90
46976;DHT22;32724;51.094;6.996;2023-06-22T06:34:32;20.90;99.90
46976;DHT22;32724;51.094;6.996;2023-06-22T06:36:58;21.10;99.90
46976;DHT22;32724;51.094;6.996;2023-06-22T06:39:23;21.30;99.90
46976;DHT22;32724;51.094;6.996;2023-06-22T06:41:48;21.60;99.90
46976;DHT22;32724;51.094;6.996;2023-06-22T06:44:14;22.00;99.90
46976;DHT22;32724;51.094;6.996;2023-06-22T06:46:39;22.50;99.90
46976;DHT22;32724;51.094;6.996;2023-06-22T06:49:05;22.90;99.90
46976;DHT22;32724;51.094;6.996;2023-06-22T06:51:30;23.20;99.90
46976;DHT22;32724;51.094;6.996;2023-06-22T06:53:56;23.30;99.90
46976;DHT22;32724;51.094;6.996;2023-06-22T06:56:21;23.30;99.90
46976;DHT22;32724;51.094;6.996;2023-06-22T06:58:49;23.20;99.90
46976;DHT22;32724;51.094;6.996;2023-06-22T07:01:15;23.00;99.90
46976;DHT22;32724;51.094;6.996;2023-06-22T07:03:40;23.00;99.90
46976;DHT22;32724;51.094;6.996;2023-06-22T07:06:05;23.30;99.90
46976;DHT22;32724;51.094;6.996;2023-06-22T07:08:31;23.60;99.90
46976;DHT22;32724;51.094;6.996;2023-06-22T07:10:56;24.00;99.90
46976;DHT22;32724;51.094;6.996;2023-06-22T07:13:22;24.20;99.90
46976;DHT22;32724;51.094;6.996;2023-06-22T07:15:47;24.50;99.90
46976;DHT22;32724;51.094;6.996;2023-06-22T07:18:13;24.60;99.90
46976;DHT22;32724;51.094;6.996;2023-06-22T07:20:38;24.60;99.90
46976;DHT22;32724;51.094;6.996;2023-06-22T07:23:04;24.60;99.90
46976;DHT22;32724;51.094;6.996;2023-06-22T07:25:30;24.60;99.90
46976;DHT22;32724;51.094;6.996;2023-06-22T07:28:02;24.70;99.90
46976;DHT22;32724;51.094;6.996;2023-06-22T07:30:29;24.90;99.90
46976;DHT22;32724;51.094;6.996;2023-06-22T07:32:55;25.30;99.90
46976;DHT22;32724;51.094;6.996;2023-06-22T07:35:20;25.90;99.90
46976;DHT22;32724;51.094;6.996;2023-06-22T07:37:46;26.70;99.90
46976;DHT22;32724;51.094;6.996;2023-06-22T07:40:11;27.00;99.90
46976;DHT22;32724;51.094;6.996;2023-06-22T07:42:37;27.00;99.90
46976;DHT22;32724;51.094;6.996;2023-06-22T07:45:03;26.80;99.90
46976;DHT22;32724;51.094;6.996;2023-06-22T07:47:29;26.90;99.90
46976;DHT22;32724;51.094;6.996;2023-06-22T07:49:55;27.00;99.90
46976;DHT22;32724;51.094;6.996;2023-06-22T07:52:22;27.10;99.90
46976;DHT22;32724;51.094;6.996;2023-06-22T07:54:48;27.20;99.90
46976;DHT22;32724;51.094;6.996;2023-06-22T07:57:13;27.60;99.90
46976;DHT22;32724;51.094;6.996;2023-06-22T07:59:39;27.70;99.90
46976;DHT22;32724;51.094;6.996;2023-06-22T08:02:04;27.80;99.90
46976;DHT22;32724;51.094;6.996;2023-06-22T08:04:30;28.10;99.90
46976;DHT22;32724;51.094;6.996;2023-06-22T08:07:00;28.10;99.80
46976;DHT22;32724;51.094;6.996;2023-06-22T08:09:27;28.00;99.90
46976;DHT22;32724;51.094;6.996;2023-06-22T08:11:52;28.10;99.50
46976;DHT22;32724;51.094;6.996;2023-06-22T08:14:19;28.20;99.40
46976;DHT22;32724;51.094;6.996;2023-06-22T08:16:44;28.30;99.00
46976;DHT22;32724;51.094;6.996;2023-06-22T08:19:10;28.40;96.80
46976;DHT22;32724;51.094;6.996;2023-06-22T08:21:35;28.40;95.70
46976;DHT22;32724;51.094;6.996;2023-06-22T08:24:01;28.30;95.50
46976;DHT22;32724;51.094;6.996;2023-06-22T08:26:27;28.20;95.40
46976;DHT22;32724;51.094;6.996;2023-06-22T08:28:53;28.20;97.40
46976;DHT22;32724;51.094;6.996;2023-06-22T08:31:18;28.00;97.80
46976;DHT22;32724;51.094;6.996;2023-06-22T08:33:43;27.90;97.10
46976;DHT22;32724;51.094;6.996;2023-06-22T08:36:10;27.90;96.40
46976;DHT22;32724;51.094;6.996;2023-06-22T08:38:38;27.60;96.90
46976;DHT22;32724;51.094;6.996;2023-06-22T08:41:03;27.70;96.70
46976;DHT22;32724;51.094;6.996;2023-06-22T08:43:29;27.90;96.90
46976;DHT22;32724;51.094;6.996;2023-06-22T08:45:54;28.10;96.10
46976;DHT22;32724;51.094;6.996;2023-06-22T08:48:20;28.20;95.50
46976;DHT22;32724;51.094;6.996;2023-06-22T08:50:45;28.10;95.40
46976;DHT22;32724;51.094;6.996;2023-06-22T08:53:11;28.10;95.80
46976;DHT22;32724;51.094;6.996;2023-06-22T08:55:36;28.20;95.60
46976;DHT22;32724;51.094;6.996;2023-06-22T08:58:02;28.20;95.00
46976;DHT22;32724;51.094;6.996;2023-06-22T09:00:29;28.40;95.20
46976;DHT22;32724;51.094;6.996;2023-06-22T09:02:58;28.60;95.00
46976;DHT22;32724;51.094;6.996;2023-06-22T09:05:24;29.00;94.10
46976;DHT22;32724;51.094;6.996;2023-06-22T09:07:51;29.40;93.80
46976;DHT22;32724;51.094;6.996;2023-06-22T09:10:16;29.60;93.50
46976;DHT22;32724;51.094;6.996;2023-06-22T09:12:42;29.60;92.60
46976;DHT22;32724;51.094;6.996;2023-06-22T09:15:08;29.40;92.80
46976;DHT22;32724;51.094;6.996;2023-06-22T09:17:34;29.60;92.60
46976;DHT22;32724;51.094;6.996;2023-06-22T09:20:00;29.90;91.50
46976;DHT22;32724;51.094;6.996;2023-06-22T09:22:26;30.10;90.80
46976;DHT22;32724;51.094;6.996;2023-06-22T09:24:55;29.90;90.70
46976;DHT22;32724;51.094;6.996;2023-06-22T09:27:21;29.90;90.50
46976;DHT22;32724;51.094;6.996;2023-06-22T09:29:46;29.90;90.70
46976;DHT22;32724;51.094;6.996;2023-06-22T09:32:12;29.70;91.30
46976;DHT22;32724;51.094;6.996;2023-06-22T09:34:37;29.80;91.70
46976;DHT22;32724;51.094;6.996;2023-06-22T09:37:03;30.00;91.70
46976;DHT22;32724;51.094;6.996;2023-06-22T09:39:28;29.80;90.50
46976;DHT22;32724;51.094;6.996;2023-06-22T09:41:54;29.80;91.10
46976;DHT22;32724;51.094;6.996;2023-06-22T09:44:19;30.10;90.90
46976;DHT22;32724;51.094;6.996;2023-06-22T09:46:45;30.00;91.00
46976;DHT22;32724;51.094;6.996;2023-06-22T09:49:10;30.20;91.00
46976;DHT22;32724;51.094;6.996;2023-06-22T09:51:36;30.60;90.90
46976;DHT22;32724;51.094;6.996;2023-06-22T09:54:01;30.40;90.40
46976;DHT22;32724;51.094;6.996;2023-06-22T09:56:26;30.60;90.20
46976;DHT22;32724;51.094;6.996;2023-06-22T09:58:53;30.70;89.90
46976;DHT22;32724;51.094;6.996;2023-06-22T10:01:19;30.60;90.10
46976;DHT22;32724;51.094;6.996;2023-06-22T10:03:46;30.60;89.70
46976;DHT22;32724;51.094;6.996;2023-06-22T10:06:11;30.90;89.70
46976;DHT22;32724;51.094;6.996;2023-06-22T10:08:37;30.90;88.10
46976;DHT22;32724;51.094;6.996;2023-06-22T10:11:04;30.60;88.80
46976;DHT22;32724;51.094;6.996;2023-06-22T10:13:30;30.20;89.80
46976;DHT22;32724;51.094;6.996;2023-06-22T10:15:56;30.10;90.20
46976;DHT22;32724;51.094;6.996;2023-06-22T10:18:21;30.10;90.60
46976;DHT22;32724;51.094;6.996;2023-06-22T10:20:47;30.00;90.60
46976;DHT22;32724;51.094;6.996;2023-06-22T10:23:13;29.80;91.40
46976;DHT22;32724;51.094;6.996;2023-06-22T10:25:38;29.50;90.70
46976;DHT22;32724;51.094;6.996;2023-06-22T10:28:03;28.90;90.80
46976;DHT22;32724;51.094;6.996;2023-06-22T10:30:29;28.40;91.60
46976;DHT22;32724;51.094;6.996;2023-06-22T10:32:54;28.20;92.20
46976;DHT22;32724;51.094;6.996;2023-06-22T10:35:20;27.70;92.70
46976;DHT22;32724;51.094;6.996;2023-06-22T10:37:45;27.60;94.30
46976;DHT22;32724;51.094;6.996;2023-06-22T10:40:15;27.10;98.80
46976;DHT22;32724;51.094;6.996;2023-06-22T10:42:41;26.60;99.90
46976;DHT22;32724;51.094;6.996;2023-06-22T10:45:06;26.00;99.90
46976;DHT22;32724;51.094;6.996;2023-06-22T10:47:33;25.70;99.90
46976;DHT22;32724;51.094;6.996;2023-06-22T10:49:58;25.30;99.90
46976;DHT22;32724;51.094;6.996;2023-06-22T10:52:24;24.90;99.90
46976;DHT22;32724;51.094;6.996;2023-06-22T10:54:49;24.50;99.90
46976;DHT22;32724;51.094;6.996;2023-06-22T10:57:15;24.20;99.90
46976;DHT22;32724;51.094;6.996;2023-06-22T10:59:40;23.90;99.90
46976;DHT22;32724;51.094;6.996;2023-06-22T11:02:06;23.70;99.90
46976;DHT22;32724;51.094;6.996;2023-06-22T11:04:31;23.60;99.90
46976;DHT22;32724;51.094;6.996;2023-06-22T11:06:57;23.40;99.90
46976;DHT22;32724;51.094;6.996;2023-06-22T11:09:22;23.30;99.90
46976;DHT22;32724;51.094;6.996;2023-06-22T11:11:49;23.10;99.90
46976;DHT22;32724;51.094;6.996;2023-06-22T11:14:14;23.00;99.90
46976;DHT22;32724;51.094;6.996;2023-06-22T11:16:40;22.70;99.90
46976;DHT22;32724;51.094;6.996;2023-06-22T11:19:05;22.60;99.90
46976;DHT22;32724;51.094;6.996;2023-06-22T11:21:31;22.50;99.90
46976;DHT22;32724;51.094;6.996;2023-06-22T11:23:57;22.40;99.90
46976;DHT22;32724;51.094;6.996;2023-06-22T11:26:24;22.20;99.90
46976;DHT22;32724;51.094;6.996;2023-06-22T11:28:49;22.00;99.90
46976;DHT22;32724;51.094;6.996;2023-06-22T11:31:15;21.80;99.90
46976;DHT22;32724;51.094;6.996;2023-06-22T11:33:40;21.70;99.90
46976;DHT22;32724;51.094;6.996;2023-06-22T11:36:06;21.60;99.90
46976;DHT22;32724;51.094;6.996;2023-06-22T11:38:31;21.60;99.90
46976;DHT22;32724;51.094;6.996;2023-06-22T11:40:57;21.80;99.90
46976;DHT22;32724;51.094;6.996;2023-06-22T11:43:23;22.00;99.90
46976;DHT22;32724;51.094;6.996;2023-06-22T11:45:48;22.30;99.90
46976;DHT22;32724;51.094;6.996;2023-06-22T11:48:14;22.20;99.90
46976;DHT22;32724;51.094;6.996;2023-06-22T11:50:39;22.20;99.90
46976;DHT22;32724;51.094;6.996;2023-06-22T11:53:05;22.20;99.90
46976;DHT22;32724;51.094;6.996;2023-06-22T11:55:30;22.40;99.90
46976;DHT22;32724;51.094;6.996;2023-06-22T11:57:56;22.30;99.90
46976;DHT22;32724;51.094;6.996;2023-06-22T12:00:25;22.50;99.90
46976;DHT22;32724;51.094;6.996;2023-06-22T12:02:50;22.40;99.90
46976;DHT22;32724;51.094;6.996;2023-06-22T12:05:19;22.40;99.90
46976;DHT22;32724;51.094;6.996;2023-06-22T12:07:46;22.40;99.90
46976;DHT22;32724;51.094;6.996;2023-06-22T12:10:11;22.30;99.90
46976;DHT22;32724;51.094;6.996;2023-06-22T12:12:36;22.10;99.90
46976;DHT22;32724;51.094;6.996;2023-06-22T12:15:02;21.90;99.90
46976;DHT22;32724;51.094;6.996;2023-06-22T12:17:29;21.70;99.90
46976;DHT22;32724;51.094;6.996;2023-06-22T12:19:55;21.60;99.90
46976;DHT22;32724;51.094;6.996;2023-06-22T12:22:20;21.70;99.90
46976;DHT22;32724;51.094;6.996;2023-06-22T12:24:46;22.20;99.90
46976;DHT22;32724;51.094;6.996;2023-06-22T12:27:12;22.80;99.90
46976;DHT22;32724;51.094;6.996;2023-06-22T12:29:37;23.10;99.90
46976;DHT22;32724;51.094;6.996;2023-06-22T12:32:03;23.40;99.90
46976;DHT22;32724;51.094;6.996;2023-06-22T12:34:28;23.50;99.90
46976;DHT22;32724;51.094;6.996;2023-06-22T12:36:54;23.70;99.90
46976;DHT22;32724;51.094;6.996;2023-06-22T12:39:20;23.70;99.90
46976;DHT22;32724;51.094;6.996;2023-06-22T12:41:45;23.70;99.90
46976;DHT22;32724;51.094;6.996;2023-06-22T12:44:11;23.70;99.90
46976;DHT22;32724;51.094;6.996;2023-06-22T12:46:36;23.70;99.90
46976;DHT22;32724;51.094;6.996;2023-06-22T12:49:04;23.80;99.90
46976;DHT22;32724;51.094;6.996;2023-06-22T12:51:29;24.10;99.90
46976;DHT22;32724;51.094;6.996;2023-06-22T12:53:55;24.50;99.90
46976;DHT22;32724;51.094;6.996;2023-06-22T12:56:20;24.70;99.90
46976;DHT22;32724;51.094;6.996;2023-06-22T12:58:46;24.80;99.90
46976;DHT22;32724;51.094;6.996;2023-06-22T13:01:11;24.90;99.90
46976;DHT22;32724;51.094;6.996;2023-06-22T13:03:37;24.70;99.90
46976;DHT22;32724;51.094;6.996;2023-06-22T13:06:02;24.60;99.90
46976;DHT22;32724;51.094;6.996;2023-06-22T13:08:29;24.50;99.90
46976;DHT22;32724;51.094;6.996;2023-06-22T13:10:54;24.50;99.90
46976;DHT22;32724;51.094;6.996;2023-06-22T13:13:23;24.50;99.90
46976;DHT22;32724;51.094;6.996;2023-06-22T13:15:50;24.50;99.90
46976;DHT22;32724;51.094;6.996;2023-06-22T13:18:15;24.70;99.90
46976;DHT22;32724;51.094;6.996;2023-06-22T13:20:41;24.90;99.90
46976;DHT22;32724;51.094;6.996;2023-06-22T13:23:06;24.90;99.90
46976;DHT22;32724;51.094;6.996;2023-06-22T13:25:32;25.00;99.90
46976;DHT22;32724;51.094;6.996;2023-06-22T13:27:57;25.10;99.90
46976;DHT22;32724;51.094;6.996;2023-06-22T13:30:23;25.30;99.90
46976;DHT22;32724;51.094;6.996;2023-06-22T13:32:48;25.60;99.90
46976;DHT22;32724;51.094;6.996;2023-06-22T13:35:14;25.90;99.90
46976;DHT22;32724;51.094;6.996;2023-06-22T13:37:39;26.00;99.90
46976;DHT22;32724;51.094;6.996;2023-06-22T13:40:05;25.80;99.90
46976;DHT22;32724;51.094;6.996;2023-06-22T13:42:32;25.30;99.90
46976;DHT22;32724;51.094;6.996;2023-06-22T13:44:57;25.10;99.90
46976;DHT22;32724;51.094;6.996;2023-06-22T13:47:23;25.20;99.90
46976;DHT22;32724;51.094;6.996;2023-06-22T13:49:48;25.40;99.90
46976;DHT22;32724;51.094;6.996;2023-06-22T13:52:14;25.40;99.90
46976;DHT22;32724;51.094;6.996;2023-06-22T13:54:39;25.40;99.90
46976;DHT22;32724;51.094;6.996;2023-06-22T13:57:05;25.60;99.90
46976;DHT22;32724;51.094;6.996;2023-06-22T13:59:30;25.80;99.90
46976;DHT22;32724;51.094;6.996;2023-06-22T14:01:56;26.30;99.90
46976;DHT22;32724;51.094;6.996;2023-06-22T14:04:24;26.70;99.90
46976;DHT22;32724;51.094;6.996;2023-06-22T14:06:50;26.90;99.90
46976;DHT22;32724;51.094;6.996;2023-06-22T14:09:15;26.70;99.90
46976;DHT22;32724;51.094;6.996;2023-06-22T14:11:41;26.60;99.90
46976;DHT22;32724;51.094;6.996;2023-06-22T14:14:06;26.40;99.90
46976;DHT22;32724;51.094;6.996;2023-06-22T14:16:32;26.40;99.90
46976;DHT22;32724;51.094;6.996;2023-06-22T14:18:57;26.40;99.90
46976;DHT22;32724;51.094;6.996;2023-06-22T14:21:23;26.20;99.90
46976;DHT22;32724;51.094;6.996;2023-06-22T14:23:48;26.10;99.90
46976;DHT22;32724;51.094;6.996;2023-06-22T14:26:17;26.00;99.90
46976;DHT22;32724;51.094;6.996;2023-06-22T14:28:44;26.20;99.90
46976;DHT22;32724;51.094;6.996;2023-06-22T14:31:15;26.30;99.90
46976;DHT22;32724;51.094;6.996;2023-06-22T14:33:43;26.20;99.90
46976;DHT22;32724;51.094;6.996;2023-06-22T14:36:09;26.10;99.90
46976;DHT22;32724;51.094;6.996;2023-06-22T14:38:35;26.10;99.90
46976;DHT22;32724;51.094;6.996;2023-06-22T14:41:00;26.20;99.90
46976;DHT22;32724;51.094;6.996;2023-06-22T14:43:26;26.10;99.90
46976;DHT22;32724;51.094;6.996;2023-06-22T14:45:51;26.00;99.90
46976;DHT22;32724;51.094;6.996;2023-06-22T14:48:17;25.80;99.90
46976;DHT22;32724;51.094;6.996;2023-06-22T14:50:42;25.80;99.90
46976;DHT22;32724;51.094;6.996;2023-06-22T14:53:08;25.40;99.90
46976;DHT22;32724;51.094;6.996;2023-06-22T14:55:33;25.20;99.90
46976;DHT22;32724;51.094;6.996;2023-06-22T14:57:58;25.00;99.90
46976;DHT22;32724;51.094;6.996;2023-06-22T15:00:24;25.00;99.90
46976;DHT22;32724;51.094;6.996;2023-06-22T15:02:50;24.90;99.90
46976;DHT22;32724;51.094;6.996;2023-06-22T15:05:16;24.80;99.90
46976;DHT22;32724;51.094;6.996;2023-06-22T15:07:42;24.80;99.90
46976;DHT22;32724;51.094;6.996;2023-06-22T15:10:08;24.70;99.90
46976;DHT22;32724;51.094;6.996;2023-06-22T15:12:33;24.60;99.90
46976;DHT22;32724;51.094;6.996;2023-06-22T15:14:59;24.50;99.90
46976;DHT22;32724;51.094;6.996;2023-06-22T15:17:24;24.20;99.90
46976;DHT22;32724;51.094;6.996;2023-06-22T15:19:54;23.80;99.90
46976;DHT22;32724;51.094;6.996;2023-06-22T15:22:20;23.20;99.90
46976;DHT22;32724;51.094;6.996;2023-06-22T15:24:45;22.60;99.90
46976;DHT22;32724;51.094;6.996;2023-06-22T15:27:13;22.00;99.90